Time;durP1;ratioP1;P1;durP2;ratioP2;P2;SDS_P1;SDS_P2;PMS_P1;PMS_P2;Temp;Humidity;BMP_temperature;BMP_pressure;BME280_temperature;BME280_humidity;BME280_pressure;Samples;Min_cycle;Max_cycle;Signal;HPM_P1;HPM_P2
2022/01/03 00:01:21;;;;;;;0.10;0.10;;;10.40;99.90;12.80;164084.00;;;;5037593;28;20655;-74
2022/01/03 00:03:51;;;;;;;0.00;0.00;;;10.40;99.90;12.80;164084.00;;;;5043983;28;20206;-73
2022/01/03 00:06:20;;;;;;;0.10;0.10;;;10.50;99.90;12.80;164084.00;;;;5033116;28;20250;-73
2022/01/03 00:08:48;;;;;;;0.10;0.10;;;10.50;99.90;12.80;164084.00;;;;5033205;28;20248;-74
2022/01/03 00:11:20;;;;;;;0.10;0.10;;;10.50;99.90;12.80;164084.00;;;;5033572;28;20241;-73
2022/01/03 00:13:52;;;;;;;0.08;0.08;;;10.60;99.90;12.80;164084.00;;;;5041978;28;20531;-73
2022/01/03 00:16:22;;;;;;;0.03;0.03;;;10.60;99.90;12.80;164084.00;;;;5053103;28;20230;-73
2022/01/03 00:18:54;;;;;;;0.10;0.10;;;10.60;99.90;12.80;164084.00;;;;5053154;28;20194;-74
2022/01/03 00:21:29;;;;;;;0.08;0.08;;;10.60;99.90;12.80;164084.00;;;;5053400;28;20194;-73
2022/01/03 00:24:08;;;;;;;0.10;0.10;;;10.60;99.90;12.80;164084.00;;;;5053198;28;20659;-74
2022/01/03 00:26:39;;;;;;;0.10;0.10;;;10.60;99.90;12.80;164084.00;;;;5052514;28;20237;-73
2022/01/03 00:29:15;;;;;;;0.00;0.00;;;10.60;99.90;12.80;164084.00;;;;5051589;28;20206;-74
2022/01/03 00:31:44;;;;;;;0.03;0.03;;;10.60;99.90;12.80;164084.00;;;;5052569;28;20256;-74
2022/01/03 00:34:15;;;;;;;0.10;0.10;;;10.60;99.90;12.80;164084.00;;;;5052339;28;20671;-73
2022/01/03 00:36:50;;;;;;;0.00;0.00;;;10.60;99.90;12.80;164084.00;;;;5052612;28;20580;-73
2022/01/03 00:39:18;;;;;;;0.10;0.10;;;10.70;99.90;12.80;164084.00;;;;5048379;28;20215;-73
2022/01/03 00:41:48;;;;;;;0.10;0.10;;;10.70;99.90;12.80;164084.00;;;;5031746;28;20202;-74
2022/01/03 00:44:17;;;;;;;0.10;0.10;;;10.70;99.90;12.80;164084.00;;;;5031869;28;20606;-73
2022/01/03 00:46:46;;;;;;;0.00;0.00;;;10.60;99.90;12.80;164084.00;;;;5049624;28;20198;-74
2022/01/03 00:49:16;;;;;;;0.10;0.10;;;10.60;99.90;12.80;164084.00;;;;5068036;28;20194;-72
2022/01/03 00:51:44;;;;;;;0.10;0.10;;;10.70;99.90;12.80;164084.00;;;;5052204;28;20214;-75
2022/01/03 00:54:12;;;;;;;0.10;0.10;;;10.60;99.90;12.80;164084.00;;;;5051302;28;20194;-75
2022/01/03 00:56:47;;;;;;;0.10;0.10;;;10.60;99.90;12.80;164084.00;;;;5052262;28;20233;-74
2022/01/03 00:59:17;;;;;;;0.00;0.00;;;10.60;99.90;12.80;164084.00;;;;5048328;28;20691;-72
2022/01/03 01:01:50;;;;;;;0.10;0.10;;;10.60;99.90;12.80;164084.00;;;;5037315;28;20221;-74
2022/01/03 01:04:23;;;;;;;0.10;0.10;;;10.60;99.90;12.80;164084.00;;;;5067593;28;20198;-73
2022/01/03 01:06:59;;;;;;;0.10;0.10;;;10.60;99.90;12.80;164084.00;;;;5050749;28;20240;-72
2022/01/03 01:09:29;;;;;;;0.00;0.00;;;10.60;99.90;12.80;164084.00;;;;5052651;28;20248;-73
2022/01/03 01:12:00;;;;;;;0.00;0.00;;;10.60;99.90;12.80;164084.00;;;;5051226;28;20194;-74
2022/01/03 01:14:38;;;;;;;0.00;0.00;;;10.60;99.90;12.80;164084.00;;;;5047538;28;20219;-75
2022/01/03 01:17:07;;;;;;;0.10;0.10;;;10.60;99.90;12.80;164084.00;;;;5046985;28;20243;-75
2022/01/03 01:19:38;;;;;;;0.10;0.10;;;10.60;99.90;12.80;164084.00;;;;5043185;28;20228;-74
2022/01/03 01:22:06;;;;;;;0.10;0.10;;;10.60;99.90;12.80;164084.00;;;;5050986;28;20298;-75
2022/01/03 01:24:46;;;;;;;0.10;0.10;;;10.70;99.90;12.80;164084.00;;;;5044134;28;20187;-73
2022/01/03 01:30:02;;;;;;;0.00;0.00;;;10.70;99.90;12.80;164084.00;;;;5047633;28;20203;-73
2022/01/03 01:32:30;;;;;;;0.00;0.00;;;10.60;99.90;12.80;164084.00;;;;5032139;28;20196;-73
2022/01/03 01:35:01;;;;;;;0.10;0.10;;;10.60;99.90;12.80;164084.00;;;;5062128;28;20215;-73
2022/01/03 01:37:30;;;;;;;0.10;0.10;;;10.50;99.90;12.80;164084.00;;;;5036110;28;20232;-73
2022/01/03 01:39:59;;;;;;;0.10;0.10;;;10.50;99.90;12.80;164084.00;;;;5050595;28;20197;-73
2022/01/03 01:42:31;;;;;;;0.00;0.00;;;10.40;99.90;12.80;164084.00;;;;5051886;28;20569;-73
2022/01/03 01:45:07;;;;;;;0.10;0.10;;;10.30;99.90;12.80;164084.00;;;;5038103;28;20716;-73
2022/01/03 01:47:40;;;;;;;0.10;0.10;;;10.30;99.90;12.80;164084.00;;;;5031746;28;20206;-73
2022/01/03 01:50:11;;;;;;;0.10;0.10;;;10.20;99.90;12.80;164084.00;;;;5032139;28;20191;-73
2022/01/03 01:52:40;;;;;;;0.10;0.10;;;10.20;99.90;12.80;164084.00;;;;5032107;28;20179;-72
2022/01/03 01:55:12;;;;;;;0.00;0.00;;;10.20;99.90;12.80;164084.00;;;;5048222;28;20283;-73
2022/01/03 01:58:04;;;;;;;0.10;0.10;;;10.20;99.90;12.80;164084.00;;;;5059271;28;20252;-75
2022/01/03 02:00:49;;;;;;;0.10;0.10;;;10.10;99.90;12.80;164084.00;;;;5066445;28;20190;-73
2022/01/03 02:03:38;;;;;;;0.10;0.10;;;10.10;99.90;12.80;164084.00;;;;5064747;28;20645;-74
2022/01/03 02:06:28;;;;;;;0.08;0.08;;;10.10;99.90;12.80;164084.00;;;;5082985;28;20218;-73
2022/01/03 02:09:07;;;;;;;0.10;0.10;;;10.00;99.90;12.80;164084.00;;;;5063539;28;20194;-72
2022/01/03 02:11:50;;;;;;;0.10;0.10;;;10.00;99.90;12.80;164084.00;;;;5045762;28;20198;-74
2022/01/03 02:14:23;;;;;;;0.10;0.10;;;10.00;99.90;12.80;164084.00;;;;5031874;28;20199;-73
2022/01/03 02:16:55;;;;;;;0.00;0.00;;;9.90;99.90;12.80;164084.00;;;;5047050;28;20241;-73
2022/01/03 02:19:27;;;;;;;0.10;0.10;;;9.90;99.90;12.80;164084.00;;;;5047048;28;20579;-73
2022/01/03 02:21:57;;;;;;;0.00;0.00;;;9.90;99.90;12.80;164084.00;;;;5043628;28;20569;-73
2022/01/03 02:24:33;;;;;;;0.10;0.10;;;9.90;99.90;12.80;164084.00;;;;5050402;28;20281;-73
2022/01/03 02:27:02;;;;;;;0.10;0.10;;;9.90;99.90;12.80;164084.00;;;;5050256;28;20240;-73
2022/01/03 02:29:31;;;;;;;0.10;0.10;;;9.80;99.90;12.80;164084.00;;;;5049730;28;20199;-76
2022/01/03 02:31:59;;;;;;;0.00;0.00;;;9.80;99.90;12.80;164084.00;;;;5050491;28;20248;-74
2022/01/03 02:34:29;;;;;;;0.10;0.10;;;9.80;99.90;12.80;164084.00;;;;5050171;28;20253;-74
2022/01/03 02:36:59;;;;;;;0.10;0.10;;;9.80;99.90;12.80;164084.00;;;;5065849;28;20238;-73
2022/01/03 02:39:28;;;;;;;0.10;0.10;;;9.70;99.90;12.80;164084.00;;;;5051602;28;20194;-72
2022/01/03 02:41:56;;;;;;;0.10;0.10;;;9.60;99.90;12.80;164084.00;;;;5050990;28;20209;-72
2022/01/03 02:44:25;;;;;;;0.10;0.10;;;9.60;99.90;12.80;164084.00;;;;5048639;28;20217;-74
2022/01/03 02:46:54;;;;;;;0.10;0.10;;;9.60;99.90;12.80;164084.00;;;;5049713;28;20659;-73
2022/01/03 02:49:22;;;;;;;0.10;0.10;;;9.50;99.90;12.80;164084.00;;;;5066412;28;20200;-73
2022/01/03 02:51:50;;;;;;;0.10;0.10;;;9.50;99.90;12.80;164084.00;;;;5051294;28;20183;-73
2022/01/03 02:54:20;;;;;;;0.10;0.10;;;9.50;99.90;12.80;164084.00;;;;5050270;28;20281;-74
2022/01/03 02:56:48;;;;;;;0.00;0.00;;;9.50;99.90;12.80;164084.00;;;;5042928;28;20233;-74
2022/01/03 02:59:19;;;;;;;0.10;0.10;;;9.50;99.90;12.80;164084.00;;;;5030280;28;20203;-73
2022/01/03 03:01:49;;;;;;;0.10;0.10;;;9.50;99.90;12.80;164084.00;;;;5030126;28;20183;-73
2022/01/03 03:04:20;;;;;;;0.10;0.10;;;9.50;99.90;12.80;164084.00;;;;5031403;28;20290;-75
2022/01/03 03:06:49;;;;;;;0.00;0.00;;;9.50;99.90;12.80;164084.00;;;;5033813;28;20207;-73
2022/01/03 03:09:20;;;;;;;0.00;0.00;;;9.50;99.90;12.80;164084.00;;;;5033686;28;20234;-73
2022/01/03 03:11:50;;;;;;;0.10;0.10;;;9.40;99.90;12.80;164084.00;;;;5033244;28;20227;-73
2022/01/03 03:14:18;;;;;;;0.10;0.10;;;9.40;99.90;12.80;164084.00;;;;5033070;28;20195;-73
2022/01/03 03:16:47;;;;;;;0.10;0.10;;;9.40;99.90;12.80;164084.00;;;;5032768;28;20211;-73
2022/01/03 03:19:15;;;;;;;0.10;0.10;;;9.40;99.90;12.80;164084.00;;;;5033122;28;20290;-73
2022/01/03 03:21:44;;;;;;;0.10;0.10;;;9.40;99.90;12.80;164084.00;;;;5046299;28;20194;-76
2022/01/03 03:24:12;;;;;;;0.10;0.10;;;9.30;99.90;12.80;164084.00;;;;5050493;28;20203;-72
2022/01/03 03:26:40;;;;;;;0.10;0.10;;;9.30;99.90;12.80;164084.00;;;;5044918;28;20292;-74
2022/01/03 03:29:09;;;;;;;0.10;0.10;;;9.20;99.90;12.80;164084.00;;;;5043584;28;20198;-72
2022/01/03 03:31:38;;;;;;;0.10;0.10;;;9.20;99.90;12.80;164084.00;;;;5051989;28;20195;-72
2022/01/03 03:34:07;;;;;;;0.10;0.10;;;9.10;99.90;12.80;164084.00;;;;5050981;28;20577;-74
2022/01/03 03:36:35;;;;;;;0.10;0.10;;;9.10;99.90;12.80;164084.00;;;;5051867;28;20216;-73
2022/01/03 03:39:03;;;;;;;0.10;0.10;;;9.00;99.90;12.80;164084.00;;;;5052525;28;20226;-74
2022/01/03 03:41:31;;;;;;;0.10;0.10;;;9.00;99.90;12.80;164084.00;;;;5052723;28;20192;-73
2022/01/03 03:43:59;;;;;;;0.10;0.10;;;9.00;99.90;12.80;164084.00;;;;5052771;28;20201;-74
2022/01/03 03:46:28;;;;;;;0.10;0.10;;;8.90;99.90;12.80;164084.00;;;;5047847;28;20297;-74
2022/01/03 03:48:56;;;;;;;0.10;0.10;;;8.90;99.90;12.80;164084.00;;;;5049131;28;20207;-73
2022/01/03 03:51:25;;;;;;;0.10;0.10;;;8.90;99.90;12.80;164084.00;;;;5049156;28;20198;-73
2022/01/03 03:53:54;;;;;;;0.10;0.10;;;8.90;99.90;12.80;164084.00;;;;5032563;28;20202;-75
2022/01/03 03:56:25;;;;;;;0.10;0.10;;;8.80;99.90;12.80;164084.00;;;;5052004;28;20222;-75
2022/01/03 03:58:53;;;;;;;0.10;0.10;;;8.80;99.90;12.80;164084.00;;;;5052488;28;20215;-75
2022/01/03 04:01:23;;;;;;;0.10;0.10;;;8.70;99.90;12.80;164084.00;;;;5052252;28;20293;-72
2022/01/03 04:03:56;;;;;;;0.10;0.10;;;8.70;99.90;12.80;164084.00;;;;5052480;28;20233;-73
2022/01/03 04:06:24;;;;;;;0.05;0.05;;;8.70;99.90;12.80;164084.00;;;;5053023;28;20236;-73
2022/01/03 04:08:56;;;;;;;0.10;0.10;;;8.70;99.90;12.80;164084.00;;;;5052723;28;20262;-73
2022/01/03 04:11:24;;;;;;;0.10;0.10;;;8.70;99.90;12.80;164084.00;;;;5052168;28;20191;-73
2022/01/03 04:13:54;;;;;;;0.10;0.10;;;8.70;99.90;12.80;164084.00;;;;5052365;28;20313;-73
2022/01/03 04:16:23;;;;;;;0.10;0.10;;;8.60;99.90;12.80;164084.00;;;;5051831;28;20248;-73
2022/01/03 04:18:51;;;;;;;0.10;0.10;;;8.60;99.90;12.80;164084.00;;;;5053292;28;20218;-73
2022/01/03 04:21:21;;;;;;;0.10;0.10;;;8.60;99.90;12.80;164084.00;;;;5051961;28;20547;-72
2022/01/03 04:23:49;;;;;;;0.10;0.10;;;8.50;99.90;12.80;164084.00;;;;5063200;28;20205;-73
2022/01/03 04:26:18;;;;;;;0.00;0.00;;;8.50;99.90;12.80;164084.00;;;;5041282;28;20310;-73
2022/01/03 04:28:47;;;;;;;0.00;0.00;;;8.60;99.90;12.80;164084.00;;;;5031916;28;20389;-72
2022/01/03 04:31:16;;;;;;;0.10;0.10;;;8.60;99.90;12.80;164084.00;;;;5040968;28;20618;-73
2022/01/03 04:33:47;;;;;;;0.10;0.10;;;8.60;99.90;12.80;164084.00;;;;5051902;28;20198;-73
2022/01/03 04:36:15;;;;;;;0.10;0.10;;;8.60;99.90;12.80;164084.00;;;;5036316;28;20646;-73
2022/01/03 04:38:44;;;;;;;0.00;0.00;;;8.60;99.90;12.80;164084.00;;;;5032968;28;20576;-73
2022/01/03 04:41:12;;;;;;;0.10;0.10;;;8.50;99.90;12.80;164084.00;;;;5033010;28;20191;-72
2022/01/03 04:43:41;;;;;;;0.10;0.10;;;8.50;99.90;12.80;164084.00;;;;5032598;28;20728;-72
2022/01/03 04:46:10;;;;;;;0.05;0.05;;;8.50;99.90;12.80;164084.00;;;;5031172;28;20223;-72
2022/01/03 04:48:42;;;;;;;0.10;0.10;;;8.50;99.90;12.80;164084.00;;;;5031199;28;20249;-71
2022/01/03 04:51:11;;;;;;;0.10;0.10;;;8.50;99.90;12.80;164084.00;;;;5031479;28;20203;-71
2022/01/03 04:53:40;;;;;;;0.00;0.00;;;8.50;99.90;12.80;164084.00;;;;5043273;28;20197;-75
2022/01/03 04:56:13;;;;;;;0.10;0.10;;;8.50;99.90;12.80;164084.00;;;;5051618;28;20248;-71
2022/01/03 04:58:42;;;;;;;0.10;0.10;;;8.50;99.90;12.80;164084.00;;;;5051256;28;20229;-72
2022/01/03 05:01:12;;;;;;;0.10;0.10;;;8.60;99.90;12.80;164084.00;;;;5067700;28;20198;-72
2022/01/03 05:03:41;;;;;;;0.00;0.00;;;8.60;99.90;12.80;164084.00;;;;5032966;28;20199;-73
2022/01/03 05:06:09;;;;;;;0.10;0.10;;;8.60;99.90;12.80;164084.00;;;;5032273;28;20210;-72
2022/01/03 05:08:37;;;;;;;0.10;0.10;;;8.70;99.90;12.80;164084.00;;;;5033358;28;20686;-72
2022/01/03 05:11:05;;;;;;;0.10;0.10;;;8.70;99.90;12.80;164084.00;;;;5035721;28;20221;-72
2022/01/03 05:13:35;;;;;;;0.10;0.10;;;8.80;99.90;12.80;164084.00;;;;5050854;28;20240;-75
2022/01/03 05:16:04;;;;;;;0.10;0.10;;;8.80;99.90;12.80;164084.00;;;;5050890;28;20668;-75
2022/01/03 05:18:34;;;;;;;0.05;0.05;;;8.80;99.90;12.80;164084.00;;;;5050686;28;20733;-75
2022/01/03 05:21:03;;;;;;;0.10;0.10;;;8.80;99.90;12.80;164084.00;;;;5049778;28;20290;-73
2022/01/03 05:23:33;;;;;;;0.00;0.00;;;8.80;99.90;12.80;164084.00;;;;5035527;28;20195;-73
2022/01/03 05:26:03;;;;;;;0.05;0.05;;;8.90;99.90;12.80;164084.00;;;;5048002;28;20742;-73
2022/01/03 05:28:31;;;;;;;0.10;0.10;;;8.90;99.90;12.80;164084.00;;;;5050376;28;20575;-73
2022/01/03 05:31:02;;;;;;;0.10;0.10;;;8.90;99.90;12.80;164084.00;;;;5050120;28;20202;-72
2022/01/03 05:33:32;;;;;;;0.10;0.10;;;8.90;99.90;12.80;164084.00;;;;5042460;28;20645;-72
2022/01/03 05:36:01;;;;;;;0.10;0.10;;;8.90;99.90;12.80;164084.00;;;;5045786;28;20210;-73
2022/01/03 05:38:29;;;;;;;0.10;0.10;;;8.90;99.90;12.80;164084.00;;;;5049869;28;20238;-73
2022/01/03 05:40:59;;;;;;;0.10;0.10;;;8.90;99.90;12.80;164084.00;;;;5066980;28;20198;-73
2022/01/03 05:43:27;;;;;;;0.10;0.10;;;8.90;99.90;12.80;164084.00;;;;5051434;28;20664;-74
2022/01/03 05:45:55;;;;;;;0.10;0.10;;;8.90;99.90;12.80;164084.00;;;;5054646;28;20730;-73
2022/01/03 05:48:25;;;;;;;0.10;0.10;;;8.80;99.90;12.80;164084.00;;;;5047276;28;20216;-72
2022/01/03 05:50:53;;;;;;;0.10;0.10;;;8.90;99.90;12.80;164084.00;;;;5049269;28;20695;-73
2022/01/03 05:53:22;;;;;;;0.10;0.10;;;8.90;99.90;12.80;164084.00;;;;5048178;28;20218;-73
2022/01/03 05:55:50;;;;;;;0.10;0.10;;;8.80;99.90;12.80;164084.00;;;;5065601;28;20226;-72
2022/01/03 05:58:19;;;;;;;0.10;0.10;;;8.80;99.90;12.80;164084.00;;;;5051427;28;20194;-72
2022/01/03 06:00:47;;;;;;;0.00;0.00;;;8.80;99.90;12.80;164084.00;;;;5066453;28;20218;-75
2022/01/03 06:03:20;;;;;;;0.10;0.10;;;8.80;99.90;12.80;164084.00;;;;5065565;22;20304;-72
2022/01/03 06:08:32;;;;;;;0.10;0.10;;;8.70;99.90;12.80;164084.00;;;;5024887;28;20199;-74
2022/01/03 06:11:02;;;;;;;0.10;0.10;;;8.70;99.90;12.80;164084.00;;;;5044922;28;20234;-73
2022/01/03 06:13:33;;;;;;;0.10;0.10;;;8.60;99.90;12.80;164084.00;;;;5038045;28;20266;-73
2022/01/03 06:16:01;;;;;;;0.10;0.10;;;8.60;99.90;12.80;164084.00;;;;5018143;28;20222;-73
2022/01/03 06:18:32;;;;;;;0.03;0.03;;;8.60;99.90;12.80;164084.00;;;;5018089;28;20230;-72
2022/01/03 06:21:06;;;;;;;0.10;0.10;;;8.60;99.90;12.80;164084.00;;;;5035066;28;20200;-73
2022/01/03 06:23:40;;;;;;;0.00;0.00;;;8.50;99.90;12.80;164084.00;;;;5018739;28;20207;-73
2022/01/03 06:26:11;;;;;;;0.10;0.10;;;8.60;99.90;12.80;164084.00;;;;5017874;28;20211;-73
2022/01/03 06:28:47;;;;;;;0.00;0.00;;;8.50;99.90;12.80;164084.00;;;;5018646;28;20245;-74
2022/01/03 06:31:17;;;;;;;0.10;0.10;;;8.50;99.90;12.80;164084.00;;;;5037154;28;20617;-72
2022/01/03 06:34:04;;;;;;;0.10;0.10;;;8.50;99.90;12.80;164084.00;;;;5021188;28;20207;-74
2022/01/03 06:36:48;;;;;;;0.10;0.10;;;8.50;99.90;12.80;164084.00;;;;5017051;28;20567;-72
2022/01/03 06:39:16;;;;;;;0.10;0.10;;;8.40;99.90;12.80;164084.00;;;;5033341;28;20219;-72
2022/01/03 06:41:45;;;;;;;0.10;0.10;;;8.40;99.90;12.80;164084.00;;;;5022699;28;20208;-71
2022/01/03 06:44:15;;;;;;;0.00;0.00;;;8.40;99.90;12.80;164084.00;;;;5022272;28;20274;-71
2022/01/03 06:46:44;;;;;;;0.00;0.00;;;8.40;99.90;12.80;164084.00;;;;5021977;28;20282;-71
2022/01/03 06:49:12;;;;;;;0.10;0.10;;;8.40;99.90;12.80;164084.00;;;;5022880;28;20188;-71
2022/01/03 06:51:41;;;;;;;0.10;0.10;;;8.40;99.90;12.80;164084.00;;;;5021241;28;20199;-71
2022/01/03 06:54:14;;;;;;;0.10;0.10;;;8.30;99.90;12.80;164084.00;;;;5022324;28;20939;-71
2022/01/03 06:56:55;;;;;;;0.10;0.10;;;8.30;99.90;12.80;164084.00;;;;5023370;28;20340;-72
2022/01/03 06:59:28;;;;;;;0.10;0.10;;;8.30;99.90;12.80;164084.00;;;;5022615;28;20229;-71
2022/01/03 07:01:56;;;;;;;0.10;0.10;;;8.20;99.90;12.80;164084.00;;;;5020636;28;20195;-74
2022/01/03 07:04:25;;;;;;;0.10;0.10;;;8.20;99.90;12.80;164084.00;;;;5022775;28;20214;-71
2022/01/03 07:06:53;;;;;;;0.10;0.10;;;8.10;99.90;12.80;164084.00;;;;5022649;28;20210;-71
2022/01/03 07:09:23;;;;;;;0.00;0.00;;;8.10;99.90;12.80;164084.00;;;;5023832;28;20195;-73
2022/01/03 07:11:51;;;;;;;0.10;0.10;;;8.10;99.90;12.80;164084.00;;;;5023657;28;20187;-72
2022/01/03 07:19:57;;;;;;;0.10;0.10;;;8.00;99.90;12.80;164084.00;;;;5022324;28;20210;-72
2022/01/03 07:22:26;;;;;;;0.10;0.10;;;8.00;99.90;12.80;164084.00;;;;5023281;28;20219;-73
2022/01/03 07:24:56;;;;;;;0.00;0.00;;;8.00;99.90;12.80;164084.00;;;;5021051;28;20554;-72
2022/01/03 07:27:24;;;;;;;0.10;0.10;;;8.00;99.90;12.80;164084.00;;;;5023785;28;20680;-72
2022/01/03 07:29:53;;;;;;;0.10;0.10;;;8.00;99.90;12.80;164084.00;;;;5023067;28;20214;-73
2022/01/03 07:32:21;;;;;;;0.10;0.10;;;8.00;99.90;12.80;164084.00;;;;5020711;28;20203;-73
2022/01/03 07:34:49;;;;;;;0.10;0.10;;;8.00;99.90;12.80;164084.00;;;;5022463;28;20206;-73
2022/01/03 07:37:18;;;;;;;0.10;0.10;;;8.00;99.90;12.80;164084.00;;;;5021412;28;20189;-72
2022/01/03 07:39:46;;;;;;;0.10;0.10;;;8.00;99.90;12.80;164084.00;;;;5024086;28;20672;-72
2022/01/03 07:42:16;;;;;;;0.10;0.10;;;8.00;99.90;12.80;164084.00;;;;5023976;28;20201;-72
2022/01/03 07:44:51;;;;;;;0.10;0.10;;;8.00;99.90;12.80;164084.00;;;;5038411;28;20198;-72
2022/01/03 07:47:19;;;;;;;0.10;0.10;;;8.00;99.90;12.80;164084.00;;;;5022819;28;20195;-73
2022/01/03 07:49:47;;;;;;;0.10;0.10;;;8.00;99.90;12.80;164084.00;;;;5019903;28;20219;-72
2022/01/03 07:52:15;;;;;;;0.10;0.10;;;8.00;99.90;12.80;164084.00;;;;5020045;28;20266;-73
2022/01/03 07:54:44;;;;;;;0.10;0.10;;;8.00;99.90;12.80;164084.00;;;;5023163;28;20224;-73
2022/01/03 07:57:12;;;;;;;0.10;0.10;;;8.10;99.90;12.80;164084.00;;;;5017118;28;20282;-73
2022/01/03 07:59:41;;;;;;;0.10;0.10;;;8.10;99.90;12.80;164084.00;;;;5022811;28;20223;-72
2022/01/03 08:02:10;;;;;;;0.10;0.10;;;8.10;99.90;12.80;164084.00;;;;5021747;28;20275;-73
2022/01/03 08:04:38;;;;;;;0.10;0.10;;;8.10;99.90;12.80;164084.00;;;;5022279;28;20281;-73
2022/01/03 08:07:06;;;;;;;0.00;0.00;;;8.10;99.90;12.80;164084.00;;;;5023186;28;20196;-72
2022/01/03 08:09:34;;;;;;;0.10;0.10;;;8.10;99.90;12.80;164084.00;;;;5025213;28;20209;-72
2022/01/03 08:12:03;;;;;;;0.10;0.10;;;8.20;99.90;12.80;164084.00;;;;5025849;28;20195;-73
2022/01/03 08:14:31;;;;;;;0.10;0.10;;;8.20;99.90;12.80;164084.00;;;;5024709;28;20231;-73
2022/01/03 08:17:02;;;;;;;0.10;0.10;;;8.20;99.90;12.80;164084.00;;;;5021997;28;20195;-72
2022/01/03 08:19:30;;;;;;;0.10;0.10;;;8.30;99.90;12.80;164084.00;;;;5021538;28;20231;-75
2022/01/03 08:21:58;;;;;;;0.10;0.10;;;8.30;99.90;12.80;164084.00;;;;5022376;28;20195;-73
2022/01/03 08:24:26;;;;;;;0.00;0.00;;;8.30;99.90;12.80;164084.00;;;;5020417;28;20218;-73
2022/01/03 08:26:55;;;;;;;0.10;0.10;;;8.40;99.90;12.80;164084.00;;;;5021289;28;20219;-75
2022/01/03 08:29:24;;;;;;;0.10;0.10;;;8.40;99.90;12.80;164084.00;;;;5022808;28;20679;-75
2022/01/03 08:31:52;;;;;;;0.10;0.10;;;8.50;99.90;12.80;164084.00;;;;5022817;28;20195;-75
2022/01/03 08:34:22;;;;;;;0.10;0.10;;;8.50;99.90;12.80;164084.00;;;;5037723;28;20228;-75
2022/01/03 08:36:50;;;;;;;0.10;0.10;;;8.60;99.90;12.80;164084.00;;;;5020937;28;20201;-75
2022/01/03 08:39:18;;;;;;;0.10;0.10;;;8.60;99.90;12.80;164084.00;;;;5023099;28;20194;-74
2022/01/03 08:41:47;;;;;;;0.10;0.10;;;8.70;99.90;12.80;164084.00;;;;5024414;28;20233;-75
2022/01/03 08:44:15;;;;;;;0.10;0.10;;;8.70;99.90;12.80;164084.00;;;;5024147;28;20220;-75
2022/01/03 08:46:46;;;;;;;0.10;0.10;;;8.70;99.90;12.80;164084.00;;;;5023133;28;20198;-73
2022/01/03 08:49:15;;;;;;;0.10;0.10;;;8.70;99.90;12.80;164084.00;;;;5022739;28;20199;-75
2022/01/03 08:51:45;;;;;;;0.00;0.00;;;8.80;99.90;12.80;164084.00;;;;5022053;28;20273;-76
2022/01/03 08:54:13;;;;;;;0.00;0.00;;;8.80;99.90;12.80;164084.00;;;;5022099;28;20226;-75
2022/01/03 08:56:41;;;;;;;0.10;0.10;;;8.80;99.90;12.80;164084.00;;;;5021078;28;20195;-73
2022/01/03 08:59:09;;;;;;;0.08;0.08;;;8.80;99.90;12.80;164084.00;;;;5021737;28;20643;-72
2022/01/03 09:01:38;;;;;;;0.10;0.10;;;8.90;99.90;12.80;164084.00;;;;5021387;28;20297;-73
2022/01/03 09:04:06;;;;;;;0.10;0.10;;;8.90;99.90;12.80;164084.00;;;;5021179;28;20227;-73
2022/01/03 09:06:35;;;;;;;0.10;0.10;;;8.90;99.90;12.80;164084.00;;;;5020960;28;20233;-73
2022/01/03 09:09:06;;;;;;;0.10;0.10;;;8.90;99.90;12.80;164084.00;;;;5020643;28;20538;-73
2022/01/03 09:11:35;;;;;;;0.00;0.00;;;8.90;99.90;12.80;164084.00;;;;5021282;28;20195;-73
2022/01/03 09:14:03;;;;;;;0.10;0.10;;;9.00;99.90;12.80;164084.00;;;;5020055;28;20219;-75
2022/01/03 09:16:31;;;;;;;0.00;0.00;;;9.10;99.90;12.80;164084.00;;;;5020809;28;20271;-75
2022/01/03 09:19:00;;;;;;;0.10;0.10;;;9.10;99.90;12.80;164084.00;;;;5017989;28;20254;-75
2022/01/03 09:21:29;;;;;;;0.10;0.10;;;9.10;99.90;12.80;164084.00;;;;5019281;28;20226;-72
2022/01/03 09:24:19;;;;;;;0.00;0.00;;;9.10;99.90;12.80;164084.00;;;;5020174;28;20302;-72
2022/01/03 09:29:36;;;;;;;0.08;0.08;;;9.10;99.90;12.80;164084.00;;;;5017388;28;20199;-73
2022/01/03 09:32:06;;;;;;;0.10;0.10;;;9.10;99.90;12.80;164084.00;;;;5019076;28;20214;-75
2022/01/03 09:34:35;;;;;;;0.10;0.10;;;9.10;99.90;12.80;164084.00;;;;5020351;28;20235;-73
2022/01/03 09:37:05;;;;;;;0.10;0.10;;;9.10;99.90;12.80;164084.00;;;;5019592;28;20208;-75
2022/01/03 09:39:35;;;;;;;0.10;0.10;;;9.10;99.90;12.80;164084.00;;;;5017961;28;20199;-75
2022/01/03 09:42:12;;;;;;;0.10;0.10;;;9.20;99.90;12.80;164084.00;;;;5019354;28;20218;-73
2022/01/03 09:44:42;;;;;;;0.10;0.10;;;9.10;99.90;12.80;164084.00;;;;5019044;28;20215;-75
2022/01/03 09:47:17;;;;;;;0.03;0.03;;;9.10;99.90;12.80;164084.00;;;;5019712;28;20198;-75
2022/01/03 09:49:47;;;;;;;0.10;0.10;;;9.10;99.90;12.80;164084.00;;;;5020594;28;20194;-73
2022/01/03 09:52:21;;;;;;;0.00;0.00;;;9.10;99.90;12.80;164084.00;;;;5020227;28;20187;-72
2022/01/03 09:54:51;;;;;;;0.10;0.10;;;9.10;99.90;12.80;164084.00;;;;5019026;28;20183;-74
2022/01/03 09:57:21;;;;;;;0.00;0.00;;;9.00;99.90;12.80;164084.00;;;;5018967;28;20191;-74
2022/01/03 09:59:50;;;;;;;0.10;0.10;;;9.10;99.90;12.80;164084.00;;;;5020145;28;20190;-74
2022/01/03 10:02:19;;;;;;;0.10;0.10;;;9.10;99.90;12.80;164084.00;;;;5019746;28;20247;-74
2022/01/03 10:04:48;;;;;;;0.10;0.10;;;9.10;99.90;12.80;164084.00;;;;5017145;28;20237;-74
2022/01/03 10:07:17;;;;;;;0.10;0.10;;;9.10;99.90;12.80;164084.00;;;;5019590;28;20199;-74
2022/01/03 10:09:45;;;;;;;0.10;0.10;;;9.10;99.90;12.80;164084.00;;;;5019104;28;20199;-75
2022/01/03 10:12:16;;;;;;;0.05;0.05;;;9.10;99.90;12.80;164084.00;;;;5019441;28;20203;-75
2022/01/03 10:14:46;;;;;;;0.10;0.10;;;9.10;99.90;12.80;164084.00;;;;5023750;28;20442;-74
2022/01/03 10:17:15;;;;;;;0.10;0.10;;;9.20;99.90;12.80;164084.00;;;;5022370;28;20204;-74
2022/01/03 10:19:52;;;;;;;0.10;0.10;;;9.20;99.90;12.80;164084.00;;;;5024503;28;20591;-75
2022/01/03 10:22:23;;;;;;;0.10;0.10;;;9.20;99.90;12.80;164084.00;;;;5023702;28;20227;-74
2022/01/03 10:24:52;;;;;;;0.10;0.10;;;9.30;99.90;12.80;164084.00;;;;5024756;28;20191;-74
2022/01/03 10:27:20;;;;;;;0.00;0.00;;;9.40;99.90;12.80;164084.00;;;;5023229;28;20542;-74
2022/01/03 10:29:59;;;;;;;0.10;0.10;;;9.50;99.90;12.80;164084.00;;;;5023430;28;20203;-74
2022/01/03 10:32:31;;;;;;;0.10;0.10;;;9.60;99.90;12.80;164084.00;;;;5023157;28;20201;-74
2022/01/03 10:35:16;;;;;;;0.10;0.10;;;9.60;99.90;12.80;164084.00;;;;5022086;28;20201;-74
2022/01/03 10:37:45;;;;;;;0.10;0.10;;;9.60;99.90;12.80;164084.00;;;;5022898;28;20224;-75
2022/01/03 10:40:25;;;;;;;0.00;0.00;;;9.70;99.90;12.80;164084.00;;;;5023347;28;20195;-74
2022/01/03 10:42:53;;;;;;;0.08;0.08;;;9.60;99.90;12.80;164084.00;;;;5021524;28;20220;-74
2022/01/03 10:45:32;;;;;;;0.03;0.03;;;9.70;99.90;12.80;164084.00;;;;5022534;28;20196;-74
2022/01/03 10:48:02;;;;;;;0.00;0.00;;;9.70;99.90;12.80;164084.00;;;;5022988;28;20285;-74
2022/01/03 10:50:30;;;;;;;0.08;0.08;;;9.70;99.90;12.80;164084.00;;;;5023232;28;20695;-75
2022/01/03 10:53:04;;;;;;;0.10;0.10;;;9.70;99.90;12.80;164084.00;;;;5023055;28;20231;-74
2022/01/03 10:55:34;;;;;;;0.08;0.08;;;9.70;99.90;12.80;164084.00;;;;5023652;28;20373;-74
2022/01/03 10:58:07;;;;;;;0.05;0.05;;;9.70;99.90;12.80;164084.00;;;;5030550;28;20218;-75
2022/01/03 11:00:40;;;;;;;0.10;0.10;;;9.70;99.90;12.80;164084.00;;;;5028566;28;20187;-74
2022/01/03 11:03:19;;;;;;;0.10;0.10;;;9.60;99.90;12.80;164084.00;;;;5024808;28;20234;-74
2022/01/03 11:05:54;;;;;;;0.10;0.10;;;9.60;99.90;12.80;164084.00;;;;5022637;28;20195;-74
2022/01/03 11:11:13;;;;;;;0.10;0.10;;;9.60;99.90;12.80;164084.00;;;;5022797;28;20669;-74
2022/01/03 11:13:44;;;;;;;0.10;0.10;;;9.60;99.90;12.80;164084.00;;;;5022227;28;20596;-74
2022/01/03 11:16:14;;;;;;;0.00;0.00;;;9.60;99.90;12.80;164084.00;;;;5023827;28;20229;-74
2022/01/03 11:18:46;;;;;;;0.00;0.00;;;9.60;99.90;12.80;164084.00;;;;5022835;28;20279;-74
2022/01/03 11:21:17;;;;;;;0.10;0.10;;;9.60;99.90;12.80;164084.00;;;;5022861;28;20226;-74
2022/01/03 11:23:48;;;;;;;0.10;0.10;;;9.60;99.90;12.80;164084.00;;;;5022004;28;20227;-75